Time;durP1;ratioP1;P1;durP2;ratioP2;P2;SDS_P1;SDS_P2;PMS_P1;PMS_P2;Temp;Humidity;BMP_temperature;BMP_pressure;BME280_temperature;BME280_humidity;BME280_pressure;Samples;Min_cycle;Max_cycle;Signal;HPM_P1;HPM_P2
2022/07/20 00:00:50;;;;;;;5.30;3.60;;;26.80;32.40;;;;;;5051753;28;20530;-46
2022/07/20 00:03:15;;;;;;;4.50;3.43;;;26.80;32.40;;;;;;5053471;28;20173;-45
2022/07/20 00:05:43;;;;;;;5.20;3.63;;;26.70;32.70;;;;;;5056080;28;20258;-45
2022/07/20 00:08:09;;;;;;;5.63;3.90;;;26.60;32.40;;;;;;5057278;28;20698;-45
2022/07/20 00:13:20;;;;;;;4.37;3.77;;;26.60;32.30;;;;;;5057441;28;20456;-45
2022/07/20 00:15:46;;;;;;;5.17;3.70;;;26.50;32.40;;;;;;5056745;28;20427;-46
2022/07/20 00:18:13;;;;;;;5.10;4.23;;;26.50;32.50;;;;;;5057272;28;20795;-45
2022/07/20 00:20:39;;;;;;;6.67;4.70;;;26.50;32.50;;;;;;5057024;28;20447;-46
2022/07/20 00:23:05;;;;;;;4.73;4.23;;;26.40;32.60;;;;;;5057114;28;20403;-45
2022/07/20 00:25:31;;;;;;;5.20;3.27;;;26.40;32.70;;;;;;5056761;28;20992;-45
2022/07/20 00:27:57;;;;;;;4.10;3.30;;;26.40;33.00;;;;;;5057465;28;20404;-46
2022/07/20 00:30:23;;;;;;;5.10;4.07;;;26.30;33.00;;;;;;5055500;28;20165;-46
2022/07/20 00:32:49;;;;;;;4.60;3.70;;;26.30;33.30;;;;;;5055365;28;20407;-46
2022/07/20 00:35:16;;;;;;;5.50;4.03;;;26.20;33.40;;;;;;5055060;28;20451;-46
2022/07/20 00:37:43;;;;;;;5.90;4.00;;;26.10;33.80;;;;;;5055135;28;20655;-46
2022/07/20 00:40:11;;;;;;;4.17;3.77;;;26.10;33.80;;;;;;5055165;28;20443;-46
2022/07/20 00:42:37;;;;;;;5.57;4.70;;;26.10;33.80;;;;;;5055439;28;20490;-46
2022/07/20 00:45:05;;;;;;;5.13;2.90;;;26.00;33.80;;;;;;5055136;28;20515;-46
2022/07/20 00:47:31;;;;;;;6.20;3.80;;;27.10;34.40;;;;;;5054764;28;20443;-46
2022/07/20 00:49:56;;;;;;;5.03;4.00;;;26.00;33.80;;;;;;5055105;28;20443;-46
2022/07/20 00:52:23;;;;;;;6.30;4.00;;;26.00;33.90;;;;;;5055008;28;20169;-46
2022/07/20 00:54:49;;;;;;;5.27;4.33;;;25.90;33.50;;;;;;5054913;28;20193;-46
2022/07/20 00:57:16;;;;;;;5.10;3.67;;;25.80;33.90;;;;;;5054719;28;20408;-46
2022/07/20 00:59:43;;;;;;;4.17;3.73;;;25.80;34.10;;;;;;5055092;28;20439;-46
2022/07/20 01:02:09;;;;;;;4.30;3.80;;;25.70;34.40;;;;;;5054817;28;20432;-46
2022/07/20 01:04:35;;;;;;;5.47;3.97;;;25.60;34.30;;;;;;5054899;28;20412;-46
2022/07/20 01:07:01;;;;;;;4.50;3.73;;;25.60;34.10;;;;;;5054508;28;20737;-46
2022/07/20 01:09:27;;;;;;;6.40;4.00;;;25.60;34.20;;;;;;5054911;28;20978;-46
2022/07/20 01:11:52;;;;;;;4.43;4.00;;;25.50;34.10;;;;;;5054728;28;20420;-46
2022/07/20 01:14:18;;;;;;;6.07;3.80;;;25.50;34.10;;;;;;5054662;28;20400;-46
2022/07/20 01:16:44;;;;;;;7.77;3.63;;;25.50;34.20;;;;;;5053013;28;20185;-46
2022/07/20 01:19:10;;;;;;;8.20;4.07;;;25.40;34.40;;;;;;5054597;28;20272;-46
2022/07/20 01:21:40;;;;;;;5.93;3.50;;;25.40;34.50;;;;;;5054417;28;21002;-46
2022/07/20 01:24:13;;;;;;;4.57;3.67;;;25.40;34.70;;;;;;5054687;28;20445;-46
2022/07/20 01:26:44;;;;;;;4.40;3.67;;;25.30;34.70;;;;;;5054120;28;20465;-46
2022/07/20 01:29:11;;;;;;;4.97;3.83;;;25.30;34.70;;;;;;5054398;28;20728;-46
2022/07/20 01:31:37;;;;;;;4.67;3.70;;;25.30;34.70;;;;;;5054240;28;20929;-46
2022/07/20 01:34:04;;;;;;;7.07;4.10;;;25.20;34.90;;;;;;5054283;28;20404;-46
2022/07/20 01:36:29;;;;;;;3.97;3.37;;;25.10;35.10;;;;;;5053935;28;20978;-46
2022/07/20 01:38:56;;;;;;;4.83;3.43;;;25.10;35.30;;;;;;5054170;28;20410;-46
2022/07/20 01:41:21;;;;;;;5.37;3.87;;;25.10;35.20;;;;;;5054162;28;20645;-45
2022/07/20 01:43:47;;;;;;;5.20;4.40;;;25.00;35.20;;;;;;5053994;28;20456;-46
2022/07/20 01:46:13;;;;;;;6.10;5.30;;;25.00;35.50;;;;;;5053821;28;20427;-46
2022/07/20 01:48:39;;;;;;;3.73;3.17;;;24.90;35.30;;;;;;5054036;28;20166;-46
2022/07/20 01:51:05;;;;;;;3.57;3.13;;;24.90;35.20;;;;;;5054028;28;20642;-46
2022/07/20 01:53:30;;;;;;;7.30;4.80;;;24.90;35.30;;;;;;5054170;28;20411;-46
2022/07/20 01:55:56;;;;;;;7.40;4.27;;;24.80;35.10;;;;;;5053551;28;20423;-46
2022/07/20 01:58:22;;;;;;;10.03;4.10;;;24.80;35.20;;;;;;5053691;28;20177;-46
2022/07/20 02:00:49;;;;;;;5.87;3.60;;;24.80;35.40;;;;;;5053647;28;20715;-46
2022/07/20 02:03:16;;;;;;;6.47;4.13;;;24.80;35.50;;;;;;5053846;28;20507;-46
2022/07/20 02:05:41;;;;;;;3.93;3.43;;;24.70;35.60;;;;;;5053357;28;20485;-46
2022/07/20 02:08:07;;;;;;;6.27;3.80;;;24.70;35.60;;;;;;5053638;28;20399;-46
2022/07/20 02:10:34;;;;;;;5.57;3.70;;;24.70;35.80;;;;;;5053612;28;20698;-46
2022/07/20 02:13:00;;;;;;;5.10;3.90;;;24.70;35.80;;;;;;5053439;28;20502;-46
2022/07/20 02:18:12;;;;;;;4.17;3.77;;;24.60;35.90;;;;;;5053734;28;20395;-46
2022/07/20 02:20:40;;;;;;;9.73;5.17;;;24.50;36.00;;;;;;5053276;28;20461;-46
2022/07/20 02:23:08;;;;;;;5.17;4.20;;;24.50;36.20;;;;;;5053374;28;20930;-46
2022/07/20 02:25:36;;;;;;;3.90;3.40;;;24.50;36.10;;;;;;5052880;28;20465;-46
2022/07/20 02:28:03;;;;;;;8.30;4.53;;;24.50;35.90;;;;;;5053188;28;20490;-46
2022/07/20 02:30:29;;;;;;;5.33;3.90;;;24.40;36.00;;;;;;5053182;28;20416;-46
2022/07/20 02:32:55;;;;;;;4.57;3.60;;;24.40;35.90;;;;;;5053126;28;20414;-46
2022/07/20 02:35:20;;;;;;;6.33;4.43;;;24.40;35.90;;;;;;5052867;28;20201;-46
2022/07/20 02:37:46;;;;;;;4.40;3.37;;;24.40;35.90;;;;;;5053016;28;20204;-46
2022/07/20 02:40:12;;;;;;;5.57;4.13;;;24.40;36.00;;;;;;5052835;28;20197;-46
2022/07/20 02:42:38;;;;;;;4.50;3.40;;;24.30;35.90;;;;;;5052969;28;20439;-46
2022/07/20 02:45:04;;;;;;;6.00;4.03;;;24.30;35.90;;;;;;5052814;28;20966;-46
2022/07/20 02:47:30;;;;;;;8.70;4.40;;;24.30;35.90;;;;;;5052620;28;20173;-46
2022/07/20 02:49:56;;;;;;;4.23;3.70;;;24.20;35.90;;;;;;5052692;28;20400;-46
2022/07/20 02:52:22;;;;;;;6.70;4.30;;;24.20;36.30;;;;;;5052643;28;20251;-46
2022/07/20 02:54:47;;;;;;;5.00;3.87;;;24.20;36.60;;;;;;5052597;28;20189;-46
2022/07/20 02:57:13;;;;;;;5.77;3.73;;;24.10;36.50;;;;;;5052720;28;20180;-46
2022/07/20 02:59:39;;;;;;;4.83;3.90;;;24.10;36.40;;;;;;5052638;28;20274;-46
2022/07/20 03:02:05;;;;;;;5.57;3.93;;;24.10;36.40;;;;;;5052559;28;20212;-46
2022/07/20 03:04:30;;;;;;;4.70;3.80;;;24.00;36.30;;;;;;5052491;28;20172;-46
2022/07/20 03:06:56;;;;;;;4.80;3.70;;;24.10;36.30;;;;;;5052400;28;20403;-46
2022/07/20 03:09:22;;;;;;;6.00;4.50;;;24.10;36.40;;;;;;5052429;28;20169;-46
2022/07/20 03:11:48;;;;;;;5.00;4.10;;;24.00;36.30;;;;;;5052305;28;20180;-46
2022/07/20 03:14:14;;;;;;;5.10;3.47;;;24.00;36.40;;;;;;5052336;28;20185;-46
2022/07/20 03:16:39;;;;;;;5.43;4.40;;;24.00;36.50;;;;;;5052317;28;20193;-45
2022/07/20 03:19:05;;;;;;;5.43;3.70;;;24.00;36.70;;;;;;5052570;28;20173;-46
2022/07/20 03:21:31;;;;;;;5.47;4.13;;;23.90;36.70;;;;;;5052137;28;20189;-46
2022/07/20 03:23:56;;;;;;;4.27;3.83;;;23.90;36.90;;;;;;5052134;28;20621;-46
2022/07/20 03:26:22;;;;;;;8.97;4.40;;;23.80;37.00;;;;;;5051920;28;20181;-45
2022/07/20 03:28:48;;;;;;;4.33;3.43;;;23.80;36.90;;;;;;5052427;28;20176;-46
2022/07/20 03:31:14;;;;;;;7.73;3.37;;;23.80;37.00;;;;;;5052257;28;20664;-46
2022/07/20 03:33:40;;;;;;;7.77;4.37;;;23.80;36.90;;;;;;5052128;28;20506;-46
2022/07/20 03:36:06;;;;;;;3.63;3.10;;;23.80;37.00;;;;;;5051643;28;20204;-46
2022/07/20 03:38:31;;;;;;;4.30;3.87;;;23.80;37.10;;;;;;5034016;28;20177;-46
2022/07/20 03:40:57;;;;;;;5.60;3.50;;;23.80;37.20;;;;;;5051645;28;20457;-46
2022/07/20 03:43:25;;;;;;;4.27;3.87;;;23.80;37.30;;;;;;5052125;28;20256;-46
2022/07/20 03:45:52;;;;;;;13.63;4.07;;;23.80;37.30;;;;;;5051611;28;20200;-46
2022/07/20 03:48:18;;;;;;;5.40;3.80;;;23.80;37.40;;;;;;5051797;28;20408;-46
2022/07/20 03:50:46;;;;;;;6.37;3.90;;;23.80;37.40;;;;;;5051728;28;20408;-46
2022/07/20 03:53:12;;;;;;;5.13;4.60;;;23.80;37.50;;;;;;5052028;28;20412;-45
2022/07/20 03:55:38;;;;;;;6.73;4.30;;;23.90;37.60;;;;;;5051604;28;20469;-46
2022/07/20 03:58:03;;;;;;;5.10;4.43;;;23.90;37.50;;;;;;5052115;28;20911;-46
2022/07/20 04:00:30;;;;;;;5.30;4.80;;;23.90;37.60;;;;;;5051752;28;20802;-46
2022/07/20 04:02:56;;;;;;;10.70;6.73;;;23.90;37.70;;;;;;5051867;28;20161;-46
2022/07/20 04:05:22;;;;;;;15.33;5.33;;;23.90;37.60;;;;;;5051516;28;20477;-46
2022/07/20 04:07:48;;;;;;;16.80;4.70;;;23.90;37.90;;;;;;5033927;28;20400;-46
2022/07/20 04:10:14;;;;;;;9.80;4.30;;;23.90;38.00;;;;;;5051682;28;20169;-46
2022/07/20 04:12:40;;;;;;;10.03;4.43;;;23.90;38.10;;;;;;5051749;28;20172;-46
2022/07/20 04:15:06;;;;;;;11.70;5.40;;;23.90;38.20;;;;;;5051592;28;20435;-46
2022/07/20 04:17:32;;;;;;;11.50;4.77;;;24.00;38.00;;;;;;5051458;28;20176;-45
2022/07/20 04:19:58;;;;;;;5.50;4.30;;;24.00;37.90;;;;;;5051477;28;20404;-46
2022/07/20 04:22:24;;;;;;;6.40;4.63;;;24.00;37.90;;;;;;5051588;28;20408;-46
2022/07/20 04:24:50;;;;;;;5.50;3.80;;;24.10;37.90;;;;;;5051576;28;20200;-46
2022/07/20 04:27:15;;;;;;;5.13;4.50;;;24.10;37.80;;;;;;5051414;28;20887;-46
2022/07/20 04:29:41;;;;;;;3.97;3.57;;;24.20;37.60;;;;;;5051459;28;20169;-46
2022/07/20 04:32:07;;;;;;;6.30;4.10;;;24.30;37.80;;;;;;5051454;28;20411;-46
2022/07/20 04:34:33;;;;;;;4.67;3.90;;;24.30;37.80;;;;;;5051134;28;20408;-45
2022/07/20 04:36:59;;;;;;;4.37;3.97;;;24.40;37.70;;;;;;5051134;28;20949;-46
2022/07/20 04:39:26;;;;;;;4.67;4.13;;;24.40;38.30;;;;;;5051466;28;20431;-45
2022/07/20 04:41:52;;;;;;;4.30;3.37;;;24.50;37.80;;;;;;5051207;28;20448;-46
2022/07/20 04:44:18;;;;;;;4.73;4.20;;;24.50;37.70;;;;;;5051612;28;20402;-46
2022/07/20 04:46:44;;;;;;;7.00;4.33;;;24.60;37.40;;;;;;5051324;28;20988;-46
2022/07/20 04:49:10;;;;;;;5.10;4.03;;;24.70;37.50;;;;;;5051240;28;20174;-45
2022/07/20 04:51:36;;;;;;;5.57;3.97;;;24.70;37.40;;;;;;5054395;28;20411;-46
2022/07/20 04:54:03;;;;;;;7.03;4.20;;;24.80;37.30;;;;;;5055168;28;20407;-45
2022/07/20 04:56:29;;;;;;;6.73;4.20;;;24.90;37.10;;;;;;5054655;28;20431;-45
2022/07/20 04:58:55;;;;;;;6.77;3.63;;;24.90;36.90;;;;;;5054895;28;20407;-46
2022/07/20 05:01:22;;;;;;;5.80;4.57;;;25.00;36.70;;;;;;5054763;28;20439;-46
2022/07/20 05:03:49;;;;;;;4.00;3.33;;;25.10;36.70;;;;;;5054661;28;20411;-45
2022/07/20 05:06:15;;;;;;;4.33;3.90;;;25.10;36.50;;;;;;5054480;28;20419;-46
2022/07/20 05:08:41;;;;;;;4.77;3.70;;;25.20;36.30;;;;;;5037095;28;20433;-46
2022/07/20 05:11:07;;;;;;;4.97;3.17;;;25.30;36.00;;;;;;5054741;28;20419;-46
2022/07/20 05:13:33;;;;;;;4.63;3.73;;;25.40;36.00;;;;;;5054604;28;20419;-46
2022/07/20 05:15:59;;;;;;;4.33;3.80;;;25.40;35.80;;;;;;5054306;28;20198;-46
2022/07/20 05:18:24;;;;;;;7.67;4.07;;;25.50;35.70;;;;;;5054381;28;20697;-47
2022/07/20 05:20:50;;;;;;;6.13;3.43;;;25.50;35.50;;;;;;5054549;28;20208;-48
2022/07/20 05:23:16;;;;;;;5.53;3.77;;;25.60;35.40;;;;;;5054609;28;20224;-47
2022/07/20 05:25:42;;;;;;;3.83;3.50;;;25.70;35.40;;;;;;5054045;28;20235;-47
2022/07/20 05:28:07;;;;;;;5.80;3.83;;;25.80;35.30;;;;;;5054320;28;20175;-48
2022/07/20 05:30:34;;;;;;;4.77;3.13;;;25.90;35.20;;;;;;5054301;28;20177;-48
2022/07/20 05:32:59;;;;;;;3.90;3.47;;;26.00;35.50;;;;;;5054139;28;20197;-47
2022/07/20 05:35:26;;;;;;;6.87;4.17;;;26.10;35.30;;;;;;5053902;28;20467;-47
2022/07/20 05:37:52;;;;;;;6.20;3.47;;;26.20;35.30;;;;;;5053993;28;20173;-47
2022/07/20 05:40:18;;;;;;;6.00;4.13;;;26.40;35.30;;;;;;5054185;28;21073;-46
2022/07/20 05:42:44;;;;;;;5.57;3.63;;;26.40;35.00;;;;;;5053983;28;20173;-46
2022/07/20 05:45:09;;;;;;;5.43;3.30;;;26.60;34.90;;;;;;5054013;28;20458;-46
2022/07/20 05:47:35;;;;;;;5.03;3.80;;;26.70;34.80;;;;;;5035831;28;20712;-46
2022/07/20 05:50:01;;;;;;;4.60;3.47;;;26.80;34.80;;;;;;5054055;28;20407;-46
2022/07/20 05:52:27;;;;;;;4.83;3.90;;;26.90;34.50;;;;;;5054064;28;20764;-47
2022/07/20 05:54:53;;;;;;;8.30;5.63;;;27.00;34.90;;;;;;5056256;22;20532;-46
2022/07/20 05:57:18;;;;;;;5.27;4.17;;;27.10;34.90;;;;;;5033042;28;20181;-46
2022/07/20 05:59:44;;;;;;;4.33;3.40;;;27.20;34.50;;;;;;5033894;28;20177;-45
2022/07/20 06:02:10;;;;;;;4.40;4.00;;;27.30;34.40;;;;;;5033069;28;20206;-46
2022/07/20 06:04:37;;;;;;;6.80;4.60;;;27.40;34.40;;;;;;5033623;28;20182;-45
2022/07/20 06:07:03;;;;;;;6.40;3.40;;;27.50;34.40;;;;;;5033360;28;20417;-48
2022/07/20 06:09:29;;;;;;;5.67;3.87;;;27.60;34.30;;;;;;5033710;28;20448;-46
2022/07/20 06:11:55;;;;;;;5.17;3.63;;;27.70;34.00;;;;;;5033796;28;20806;-46
2022/07/20 06:14:21;;;;;;;3.53;3.23;;;27.80;33.70;;;;;;5033479;28;20185;-45
2022/07/20 06:16:46;;;;;;;4.43;3.60;;;27.80;33.00;;;;;;5033176;28;20205;-46
2022/07/20 06:19:12;;;;;;;4.83;3.33;;;27.90;33.40;;;;;;5033400;28;20177;-46
2022/07/20 06:21:38;;;;;;;5.70;3.97;;;28.00;33.30;;;;;;5033301;28;20205;-46
2022/07/20 06:24:04;;;;;;;4.57;3.70;;;28.00;32.60;;;;;;5033247;28;20644;-46
2022/07/20 06:26:30;;;;;;;4.67;3.10;;;28.10;32.70;;;;;;5033160;28;20491;-46
2022/07/20 06:28:56;;;;;;;6.93;3.37;;;28.20;33.10;;;;;;5033280;28;20966;-45
2022/07/20 06:31:22;;;;;;;5.00;3.23;;;28.30;33.50;;;;;;5033127;28;20182;-45
2022/07/20 06:33:48;;;;;;;5.20;3.23;;;28.40;33.60;;;;;;5033088;28;20186;-46
2022/07/20 06:36:16;;;;;;;5.10;3.87;;;28.60;32.60;;;;;;5032865;28;20428;-46
2022/07/20 06:38:42;;;;;;;3.67;3.00;;;28.70;32.70;;;;;;5033113;28;20681;-46
2022/07/20 06:41:08;;;;;;;4.33;3.07;;;28.80;33.00;;;;;;5032897;28;20465;-46
2022/07/20 06:43:33;;;;;;;4.43;3.50;;;29.00;32.80;;;;;;5033024;28;20435;-46
2022/07/20 06:45:59;;;;;;;7.00;3.60;;;29.10;31.90;;;;;;5032916;28;20604;-46
2022/07/20 06:48:25;;;;;;;6.10;3.80;;;29.10;32.50;;;;;;5032823;28;20629;-46
2022/07/20 06:50:51;;;;;;;3.77;3.03;;;29.30;32.10;;;;;;5032753;28;20515;-47
2022/07/20 06:53:16;;;;;;;7.50;3.87;;;29.40;31.70;;;;;;5032789;28;20192;-46
2022/07/20 06:55:43;;;;;;;3.60;3.13;;;29.50;31.80;;;;;;5032438;28;20259;-47
2022/07/20 06:58:09;;;;;;;5.53;3.93;;;29.70;31.80;;;;;;5032632;28;20268;-46
2022/07/20 07:00:34;;;;;;;3.17;2.63;;;29.80;31.80;;;;;;5032414;28;20535;-47
2022/07/20 07:03:00;;;;;;;3.93;2.77;;;29.90;31.90;;;;;;5032512;28;20405;-48
2022/07/20 07:05:26;;;;;;;4.07;2.67;;;30.00;31.60;;;;;;5032375;28;20191;-45
2022/07/20 07:07:52;;;;;;;3.70;3.07;;;30.20;32.00;;;;;;5032514;28;20202;-45
2022/07/20 07:10:18;;;;;;;4.07;3.13;;;30.30;31.10;;;;;;5032463;28;20178;-45
2022/07/20 07:12:43;;;;;;;4.53;3.00;;;30.40;29.90;;;;;;5032342;28;20423;-46
2022/07/20 07:15:10;;;;;;;3.00;2.40;;;30.50;29.70;;;;;;5031300;28;20199;-45
2022/07/20 07:17:36;;;;;;;5.77;3.20;;;30.60;30.70;;;;;;5032217;28;20180;-45
2022/07/20 07:20:03;;;;;;;4.20;2.90;;;30.80;30.60;;;;;;5032450;28;20419;-47
2022/07/20 07:22:30;;;;;;;4.80;3.27;;;31.00;31.10;;;;;;5032583;28;20431;-47
2022/07/20 07:24:56;;;;;;;3.90;2.47;;;31.10;31.30;;;;;;5032306;28;20424;-46
2022/07/20 07:27:22;;;;;;;4.93;3.60;;;31.20;30.10;;;;;;5032141;28;20406;-47
2022/07/20 07:29:48;;;;;;;4.47;2.93;;;31.30;30.40;;;;;;5032219;28;20750;-47
2022/07/20 07:32:14;;;;;;;4.20;2.90;;;31.50;29.60;;;;;;5032186;28;20184;-45
2022/07/20 07:34:40;;;;;;;5.67;3.13;;;31.50;29.40;;;;;;5032846;28;20439;-45
2022/07/20 07:37:06;;;;;;;6.13;3.40;;;31.60;29.80;;;;;;5033541;28;20186;-45
2022/07/20 07:39:32;;;;;;;4.50;2.50;;;31.80;29.60;;;;;;5033533;28;20787;-45
2022/07/20 07:41:57;;;;;;;6.80;3.47;;;31.90;29.20;;;;;;5033561;28;20528;-45
2022/07/20 07:44:23;;;;;;;4.77;2.80;;;32.00;28.50;;;;;;5033177;28;20653;-46
2022/07/20 07:46:49;;;;;;;4.30;3.07;;;32.10;27.70;;;;;;5033108;28;20548;-47
2022/07/20 07:49:15;;;;;;;3.87;2.50;;;32.20;27.70;;;;;;5033157;28;20180;-46
2022/07/20 07:51:41;;;;;;;4.80;2.37;;;32.30;27.70;;;;;;5033542;28;20192;-46
2022/07/20 07:54:07;;;;;;;3.20;2.50;;;32.40;27.70;;;;;;5033016;28;20412;-45
2022/07/20 07:56:35;;;;;;;3.83;2.80;;;32.60;27.90;;;;;;5033228;28;20824;-45
2022/07/20 07:59:01;;;;;;;5.40;2.90;;;32.80;26.80;;;;;;5033063;28;20408;-45
2022/07/20 08:01:27;;;;;;;4.03;2.90;;;32.90;27.50;;;;;;5031675;28;20463;-46
2022/07/20 08:03:53;;;;;;;4.07;2.80;;;33.00;27.70;;;;;;5031904;28;20462;-45
2022/07/20 08:06:19;;;;;;;4.00;2.50;;;33.20;27.10;;;;;;5031582;28;20239;-46
2022/07/20 08:08:45;;;;;;;3.47;2.93;;;33.40;26.20;;;;;;5032160;28;20206;-46
2022/07/20 08:11:10;;;;;;;5.27;3.10;;;33.50;26.30;;;;;;5031860;28;20572;-45
2022/07/20 08:13:36;;;;;;;3.97;2.80;;;33.60;25.50;;;;;;5031709;28;20182;-45
2022/07/20 08:16:02;;;;;;;4.20;2.70;;;33.70;25.30;;;;;;5031520;28;20206;-46
2022/07/20 08:18:28;;;;;;;4.10;2.50;;;33.90;25.30;;;;;;5031768;28;20186;-46
2022/07/20 08:20:53;;;;;;;5.73;2.53;;;34.00;25.40;;;;;;5031978;28;20293;-46
2022/07/20 08:23:19;;;;;;;3.60;2.53;;;34.10;25.00;;;;;;5032033;28;20227;-46
2022/07/20 08:25:45;;;;;;;4.67;2.30;;;34.20;25.50;;;;;;5033130;28;20189;-46
2022/07/20 08:28:16;;;;;;;2.93;2.63;;;34.30;25.20;;;;;;5035669;28;20174;-49
2022/07/20 08:30:50;;;;;;;4.23;2.73;;;34.50;25.10;;;;;;5035512;28;20499;-46
2022/07/20 08:33:16;;;;;;;3.60;2.50;;;34.60;24.30;;;;;;5035749;28;20457;-47
2022/07/20 08:35:43;;;;;;;3.20;2.20;;;34.60;24.10;;;;;;5035100;28;20793;-48
2022/07/20 08:38:09;;;;;;;3.87;2.27;;;34.80;24.60;;;;;;5035516;28;20809;-48
2022/07/20 08:40:36;;;;;;;4.00;2.53;;;34.80;23.00;;;;;;5035630;28;20510;-48
2022/07/20 08:43:02;;;;;;;3.73;2.10;;;34.90;22.90;;;;;;5035323;28;20424;-48
2022/07/20 08:45:29;;;;;;;4.30;2.47;;;35.00;23.30;;;;;;5035289;28;20431;-48
2022/07/20 08:47:58;;;;;;;4.97;2.27;;;35.20;23.70;;;;;;5035395;28;20501;-48
2022/07/20 08:50:27;;;;;;;4.70;2.33;;;35.30;23.10;;;;;;5035520;28;20425;-48
2022/07/20 08:52:53;;;;;;;3.40;2.47;;;35.30;21.60;;;;;;5035077;28;20412;-47
2022/07/20 08:55:19;;;;;;;3.30;2.00;;;35.40;22.00;;;;;;5034835;28;20820;-49
2022/07/20 08:57:46;;;;;;;4.17;2.37;;;35.50;21.50;;;;;;5034882;28;20406;-47
2022/07/20 09:00:13;;;;;;;4.00;2.53;;;35.60;21.00;;;;;;5035118;28;20431;-48
2022/07/20 09:02:52;;;;;;;4.33;2.30;;;35.60;21.30;;;;;;5034915;28;20405;-48
2022/07/20 09:05:20;;;;;;;3.37;2.17;;;35.70;21.10;;;;;;5034845;28;20444;-48
2022/07/20 09:07:49;;;;;;;3.53;2.17;;;35.80;21.00;;;;;;5034943;28;20437;-48
2022/07/20 09:10:21;;;;;;;2.77;1.60;;;35.90;20.00;;;;;;5034805;28;20432;-47
2022/07/20 09:13:06;;;;;;;4.60;1.40;;;36.00;21.30;;;;;;5034817;28;20417;-46
2022/07/20 09:15:38;;;;;;;3.13;2.43;;;36.20;20.80;;;;;;5034696;28;20427;-48
2022/07/20 09:18:08;;;;;;;5.27;2.80;;;36.20;20.40;;;;;;5034685;28;20412;-48
2022/07/20 09:20:36;;;;;;;3.40;2.80;;;36.20;19.50;;;;;;5034559;28;20547;-49
2022/07/20 09:23:07;;;;;;;2.30;1.70;;;36.30;20.80;;;;;;5034560;28;20815;-49
2022/07/20 09:25:33;;;;;;;4.07;1.90;;;36.40;20.90;;;;;;5034242;28;20459;-48
2022/07/20 09:27:59;;;;;;;3.57;2.10;;;36.50;20.90;;;;;;5034333;28;20419;-47
2022/07/20 09:30:26;;;;;;;2.67;2.00;;;36.60;20.20;;;;;;5034464;28;20421;-49
2022/07/20 09:33:03;;;;;;;5.07;2.33;;;36.70;20.00;;;;;;5034537;28;20496;-48
2022/07/20 09:35:38;;;;;;;2.10;1.43;;;36.70;19.80;;;;;;5034261;28;20436;-47
2022/07/20 09:38:07;;;;;;;2.70;1.70;;;36.80;19.80;;;;;;5033393;28;20442;-47
2022/07/20 09:40:45;;;;;;;5.87;2.20;;;36.80;19.30;;;;;;5034396;28;20448;-46
2022/07/20 09:43:33;;;;;;;2.80;1.83;;;36.90;18.90;;;;;;5034283;28;20409;-45
2022/07/20 09:46:23;;;;;;;2.97;1.70;;;36.90;19.00;;;;;;5033875;28;20431;-47
2022/07/20 09:48:53;;;;;;;4.20;1.93;;;37.00;19.10;;;;;;5034350;28;20433;-45
2022/07/20 09:51:35;;;;;;;4.57;2.03;;;37.10;18.90;;;;;;5033998;28;20416;-47
2022/07/20 09:54:03;;;;;;;2.70;1.73;;;37.10;18.70;;;;;;5034004;28;20435;-46
2022/07/20 09:56:29;;;;;;;4.20;2.30;;;37.20;18.80;;;;;;5033574;28;20467;-46
2022/07/20 09:58:57;;;;;;;2.93;1.30;;;37.30;18.40;;;;;;5033853;28;20416;-48
2022/07/20 10:01:26;;;;;;;2.63;1.30;;;37.40;18.30;;;;;;5033727;28;20954;-49
2022/07/20 10:03:55;;;;;;;3.73;1.80;;;37.50;17.30;;;;;;5033759;28;20946;-48
2022/07/20 10:06:22;;;;;;;3.20;1.90;;;37.50;16.20;;;;;;5033434;28;20524;-46
2022/07/20 10:08:49;;;;;;;6.20;2.40;;;37.60;17.40;;;;;;5033875;28;20409;-46
2022/07/20 10:11:17;;;;;;;3.70;1.70;;;37.70;17.00;;;;;;5033900;28;20440;-46
2022/07/20 10:13:43;;;;;;;2.67;1.80;;;37.70;17.40;;;;;;5033623;28;20405;-45
2022/07/20 10:16:31;;;;;;;3.67;1.83;;;37.90;17.40;;;;;;5033316;28;20490;-45
2022/07/20 10:18:58;;;;;;;3.40;2.17;;;38.00;16.20;;;;;;5033480;28;20405;-46
2022/07/20 10:21:37;;;;;;;2.37;1.93;;;38.00;16.60;;;;;;5033680;28;20490;-46
2022/07/20 10:24:14;;;;;;;3.77;2.33;;;38.00;17.00;;;;;;5033650;28;20450;-45
2022/07/20 10:26:41;;;;;;;3.13;1.90;;;38.00;16.30;;;;;;5033204;28;20412;-45
2022/07/20 10:29:07;;;;;;;2.93;2.30;;;38.10;16.40;;;;;;5033313;28;20405;-45
2022/07/20 10:31:49;;;;;;;3.40;2.10;;;38.20;17.00;;;;;;5033482;28;20409;-46
2022/07/20 10:34:46;;;;;;;2.93;1.73;;;38.30;16.70;;;;;;5033044;28;20629;-45
2022/07/20 10:37:21;;;;;;;2.23;1.60;;;38.30;16.80;;;;;;5033202;28;20901;-45
2022/07/20 10:39:47;;;;;;;3.13;1.80;;;38.40;16.80;;;;;;5032983;28;20411;-45
2022/07/20 10:42:37;;;;;;;3.53;1.80;;;38.40;17.30;;;;;;5033215;28;20935;-45
2022/07/20 10:45:15;;;;;;;3.00;2.37;;;38.50;16.70;;;;;;5032846;28;20442;-45
2022/07/20 10:47:55;;;;;;;2.60;1.60;;;38.60;16.70;;;;;;5032442;28;20896;-46
2022/07/20 10:50:27;;;;;;;3.20;1.60;;;38.60;16.80;;;;;;5032952;28;20408;-45
2022/07/20 10:52:56;;;;;;;3.60;1.80;;;38.60;16.20;;;;;;5032934;28;20413;-48
2022/07/20 10:55:45;;;;;;;3.50;1.57;;;38.70;15.50;;;;;;5032783;28;20460;-45
2022/07/20 10:58:14;;;;;;;2.60;1.70;;;38.70;15.90;;;;;;5024861;28;20955;-49
2022/07/20 11:00:47;;;;;;;4.07;1.80;;;38.70;15.80;;;;;;5032672;28;20816;-45
2022/07/20 11:03:27;;;;;;;2.80;1.87;;;38.80;16.00;;;;;;5032608;28;20431;-46
2022/07/20 11:06:07;;;;;;;6.07;2.20;;;38.90;15.70;;;;;;5032310;28;20516;-46
2022/07/20 11:08:34;;;;;;;2.43;1.73;;;38.90;15.80;;;;;;5032779;28;20499;-46
2022/07/20 11:11:01;;;;;;;4.67;2.43;;;39.00;15.80;;;;;;5032386;28;20472;-45
2022/07/20 11:13:28;;;;;;;3.10;1.90;;;39.00;14.80;;;;;;5032693;28;20412;-47
2022/07/20 11:15:57;;;;;;;2.43;1.47;;;39.00;14.90;;;;;;5032167;28;20432;-46
2022/07/20 11:18:32;;;;;;;6.43;2.40;;;39.00;16.30;;;;;;5032454;28;20416;-48
2022/07/20 11:21:01;;;;;;;2.50;1.60;;;39.00;16.20;;;;;;5032395;28;20555;-45
2022/07/20 11:23:37;;;;;;;3.93;2.17;;;39.10;15.90;;;;;;5032409;28;20415;-46
2022/07/20 11:26:03;;;;;;;3.53;2.13;;;39.10;14.70;;;;;;5032248;28;20424;-45
2022/07/20 11:28:35;;;;;;;2.57;1.53;;;39.10;14.90;;;;;;5032367;28;20416;-45
2022/07/20 11:31:02;;;;;;;4.30;2.53;;;39.20;15.90;;;;;;5032715;28;20201;-45
2022/07/20 11:33:33;;;;;;;2.33;1.73;;;39.20;16.00;;;;;;5032399;28;20420;-47
2022/07/20 11:36:08;;;;;;;3.40;1.93;;;39.30;14.40;;;;;;5031884;28;20483;-44
2022/07/20 11:38:39;;;;;;;2.73;1.37;;;39.20;14.80;;;;;;5032082;28;20412;-47
2022/07/20 11:41:08;;;;;;;2.23;1.37;;;39.20;15.30;;;;;;5029889;28;20991;-45
2022/07/20 11:43:34;;;;;;;4.57;1.90;;;39.20;14.60;;;;;;5032044;28;20880;-45
2022/07/20 11:46:12;;;;;;;3.47;1.80;;;39.10;13.90;;;;;;5031793;28;20424;-44
2022/07/20 11:48:39;;;;;;;3.20;1.80;;;39.10;13.90;;;;;;5031915;28;20511;-48
2022/07/20 11:51:06;;;;;;;3.97;1.90;;;39.10;14.10;;;;;;5032239;28;20419;-45
2022/07/20 11:53:36;;;;;;;3.60;2.10;;;39.20;15.00;;;;;;5031860;28;20412;-44
2022/07/20 11:56:05;;;;;;;3.03;1.50;;;39.30;15.00;;;;;;5031450;28;20459;-47
2022/07/20 11:58:36;;;;;;;3.60;2.30;;;39.40;14.60;;;;;;5032144;28;20756;-45
2022/07/20 12:01:06;;;;;;;4.10;1.87;;;39.50;13.90;;;;;;5016663;28;20940;-44
2022/07/20 12:03:41;;;;;;;3.10;2.20;;;39.60;13.90;;;;;;5036054;28;20409;-48
2022/07/20 12:06:10;;;;;;;2.60;2.13;;;39.60;14.40;;;;;;5055962;23;20984;-47
2022/07/20 12:08:36;;;;;;;2.60;1.70;;;39.70;14.50;;;;;;5047865;28;20495;-46
2022/07/20 12:11:03;;;;;;;3.50;2.17;;;39.80;14.20;;;;;;5055734;28;20453;-48
2022/07/20 12:13:29;;;;;;;2.97;1.80;;;40.00;15.60;;;;;;5055774;28;20902;-49
2022/07/20 12:15:58;;;;;;;2.60;1.80;;;40.10;14.10;;;;;;5055216;28;20416;-45
2022/07/20 12:18:50;;;;;;;4.10;1.90;;;40.10;14.50;;;;;;5037676;28;20457;-48
2022/07/20 12:21:24;;;;;;;4.20;2.17;;;40.10;14.10;;;;;;5055601;28;20543;-47
2022/07/20 12:23:55;;;;;;;3.40;1.97;;;40.10;14.30;;;;;;5055773;28;20392;-47
2022/07/20 12:26:30;;;;;;;2.90;1.50;;;40.10;14.40;;;;;;5055211;28;20473;-47
2022/07/20 12:29:15;;;;;;;5.60;2.43;;;40.10;14.20;;;;;;5055413;28;20891;-47
2022/07/20 12:31:41;;;;;;;2.87;1.80;;;40.00;14.00;;;;;;5055533;28;20384;-47
2022/07/20 12:34:13;;;;;;;3.80;2.20;;;39.90;14.10;;;;;;5055550;28;20744;-46
2022/07/20 12:36:46;;;;;;;4.13;2.30;;;39.80;14.40;;;;;;5054866;28;20427;-47
2022/07/20 12:39:14;;;;;;;3.53;1.87;;;39.70;13.80;;;;;;5055293;28;20928;-46
2022/07/20 12:41:41;;;;;;;3.67;2.50;;;39.70;14.50;;;;;;5055082;28;20597;-47
2022/07/20 12:44:27;;;;;;;2.60;1.60;;;39.70;14.90;;;;;;5055042;28;20437;-47
2022/07/20 12:46:55;;;;;;;3.63;2.50;;;39.80;14.80;;;;;;5054909;28;20416;-49
2022/07/20 12:49:26;;;;;;;2.47;1.70;;;39.80;14.10;;;;;;5055562;28;20400;-49
2022/07/20 12:51:52;;;;;;;3.53;2.40;;;39.80;15.00;;;;;;5055315;28;20415;-48
2022/07/20 12:54:18;;;;;;;4.07;1.80;;;40.00;14.90;;;;;;5055393;28;20407;-49